Time;durP1;ratioP1;P1;durP2;ratioP2;P2;SDS_P1;SDS_P2;PMS_P1;PMS_P2;Temp;Humidity;BMP_temperature;BMP_pressure;BME280_temperature;BME280_humidity;BME280_pressure;Samples;Min_cycle;Max_cycle;Signal;HPM_P1;HPM_P2
2022/05/23 00:00:01;;;;;;;0.57;0.35;;;;;;;12.25;67.11;99697.44;1751466;81;20841;-87
2022/05/23 00:02:28;;;;;;;1.95;0.50;;;;;;;12.14;67.37;99698.77;1751759;80;21184;-86
2022/05/23 00:04:55;;;;;;;2.62;0.45;;;;;;;12.01;67.65;99709.47;1737255;81;20854;-86
2022/05/23 00:07:28;;;;;;;0.53;0.40;;;;;;;11.91;67.89;99719.03;1736779;82;20933;-88
2022/05/23 00:09:56;;;;;;;0.40;0.30;;;;;;;11.80;68.15;99722.48;1736750;82;20897;-87
2022/05/23 00:12:24;;;;;;;1.37;1.27;;;;;;;11.69;68.44;99723.81;1736327;82;21295;-87
2022/05/23 00:14:53;;;;;;;0.85;0.70;;;;;;;11.61;68.80;99727.88;1737023;82;20921;-86
2022/05/23 00:17:20;;;;;;;3.10;0.53;;;;;;;11.52;68.92;99731.72;1736972;82;20952;-86
2022/05/23 00:19:47;;;;;;;0.53;0.40;;;;;;;11.43;69.29;99735.03;1736708;82;20980;-88
2022/05/23 00:22:16;;;;;;;1.02;0.50;;;;;;;11.38;69.42;99744.13;1736544;82;20944;-86
2022/05/23 00:24:44;;;;;;;0.95;0.47;;;;;;;11.36;69.56;99749.11;1736731;81;20932;-88
2022/05/23 00:27:14;;;;;;;0.80;0.50;;;;;;;11.35;69.77;99744.34;1736232;82;21252;-88
2022/05/23 00:29:41;;;;;;;2.25;0.50;;;;;;;11.33;69.84;99743.63;1736188;82;20967;-88
2022/05/23 00:37:40;;;;;;;1.02;0.70;;;;;;;11.13;70.30;99742.53;1736378;81;21411;-87
2022/05/23 00:40:23;;;;;;;3.98;1.10;;;;;;;11.05;70.51;99741.00;1736182;81;21226;-88
2022/05/23 00:45:37;;;;;;;1.10;0.80;;;;;;;10.90;70.88;99741.67;1736365;82;20885;-88
2022/05/23 00:48:04;;;;;;;1.12;0.70;;;;;;;10.83;71.21;99750.09;1736647;82;21086;-87
2022/05/23 00:50:33;;;;;;;1.17;0.98;;;;;;;10.78;71.37;99747.83;1736282;82;21358;-88
2022/05/23 00:53:00;;;;;;;4.03;1.32;;;;;;;10.77;71.51;99752.23;1736432;82;21238;-87
2022/05/23 00:55:31;;;;;;;1.75;0.90;;;;;;;10.74;71.59;99759.52;1736335;82;20972;-86
2022/05/23 00:58:07;;;;;;;1.57;1.02;;;;;;;10.72;71.68;99758.80;1736719;81;20889;-87
2022/05/23 01:00:34;;;;;;;1.57;0.90;;;;;;;10.65;71.87;99753.17;1716039;82;20889;-87
2022/05/23 01:03:06;;;;;;;1.52;0.90;;;;;;;10.62;72.05;99749.45;1717689;82;21418;-87
2022/05/23 01:05:36;;;;;;;2.35;0.85;;;;;;;10.58;72.12;99748.86;1748385;82;21430;-85
2022/05/23 01:08:03;;;;;;;1.75;1.00;;;;;;;10.53;72.25;99746.20;1748840;81;20921;-86
2022/05/23 01:10:31;;;;;;;0.98;0.80;;;;;;;10.48;72.42;99750.95;1747509;82;20932;-87
2022/05/23 01:12:58;;;;;;;2.27;0.90;;;;;;;10.44;72.53;99753.44;1746770;81;21374;-87
2022/05/23 01:15:28;;;;;;;1.10;1.00;;;;;;;10.44;72.57;99758.20;1746757;82;20932;-86
2022/05/23 01:17:55;;;;;;;1.10;1.00;;;;;;;10.44;72.56;99762.61;1746621;81;21127;-86
2022/05/23 01:20:23;;;;;;;1.82;1.40;;;;;;;10.43;72.63;99772.75;1746790;82;21469;-87
2022/05/23 01:23:16;;;;;;;42.20;35.28;;;;;;;10.43;72.68;99776.20;1747052;80;21044;-86
2022/05/23 01:25:50;;;;;;;2.95;1.80;;;;;;;10.40;72.57;99775.09;1724680;83;21018;-86
2022/05/23 01:28:34;;;;;;;1.30;1.15;;;;;;;10.36;72.65;99768.42;1723512;83;20999;-86
2022/05/23 01:31:01;;;;;;;3.05;2.85;;;;;;;10.34;72.69;99764.59;1724775;83;21262;-86
2022/05/23 01:33:30;;;;;;;1.55;1.17;;;;;;;10.33;72.71;99763.39;1725071;83;20904;-88
2022/05/23 01:35:57;;;;;;;1.80;1.10;;;;;;;10.31;72.78;99758.25;1724699;83;20935;-87
2022/05/23 01:38:25;;;;;;;1.05;1.00;;;;;;;10.30;72.84;99756.59;1725492;83;20991;-87
2022/05/23 01:41:04;;;;;;;1.45;1.10;;;;;;;10.26;72.85;99772.62;1724805;83;20953;-88
2022/05/23 01:43:31;;;;;;;1.67;1.30;;;;;;;10.20;72.98;99779.13;1725082;83;21516;-86
2022/05/23 01:46:06;;;;;;;3.30;2.35;;;;;;;10.20;72.98;99783.53;1710524;83;20955;-85
2022/05/23 01:48:35;;;;;;;1.32;1.22;;;;;;;10.20;73.11;99792.70;1724969;83;20983;-87
2022/05/23 01:51:02;;;;;;;2.58;0.78;;;;;;;10.22;73.33;99802.60;1725158;83;20971;-86
2022/05/23 01:53:29;;;;;;;1.40;0.88;;;;;;;10.22;73.36;99805.22;1725618;83;20983;-86
2022/05/23 01:56:02;;;;;;;2.52;1.00;;;;;;;10.19;73.31;99808.91;1725381;83;21355;-88
2022/05/23 02:01:32;;;;;;;1.30;1.05;;;;;;;10.16;73.20;99808.66;1702356;83;20963;-87
2022/05/23 02:04:00;;;;;;;1.77;0.90;;;;;;;10.14;73.37;99807.92;1708630;83;21489;-87
2022/05/23 02:06:29;;;;;;;1.90;1.40;;;;;;;10.16;73.38;99806.52;1705479;84;21565;-85
2022/05/23 02:08:58;;;;;;;1.07;0.98;;;;;;;10.15;73.30;99808.27;1707823;84;21212;-86
2022/05/23 02:11:27;;;;;;;1.30;1.05;;;;;;;10.12;73.34;99802.44;1708799;81;20905;-83
2022/05/23 02:13:54;;;;;;;2.02;1.20;;;;;;;10.12;73.37;99804.58;1707013;84;20885;-88
2022/05/23 02:16:27;;;;;;;1.82;1.07;;;;;;;10.09;73.36;99806.11;1705754;82;21342;-86
2022/05/23 02:18:56;;;;;;;1.32;1.00;;;;;;;10.09;73.58;99810.05;1706102;84;20920;-85
2022/05/23 02:21:22;;;;;;;2.45;1.12;;;;;;;10.11;73.57;99815.16;1682943;84;21236;-86
2022/05/23 02:23:53;;;;;;;1.20;1.10;;;;;;;10.15;73.90;99813.99;1706068;84;21374;-86
2022/05/23 02:26:19;;;;;;;4.15;1.00;;;;;;;10.20;73.98;99821.05;1705999;83;20944;-86
2022/05/23 02:29:00;;;;;;;1.32;1.22;;;;;;;10.25;74.08;99826.81;1706068;84;21028;-87
2022/05/23 02:31:28;;;;;;;1.20;1.07;;;;;;;10.27;74.13;99827.55;1682487;84;20932;-86
2022/05/23 02:34:02;;;;;;;3.00;1.20;;;;;;;10.30;74.08;99827.34;1708227;82;21544;-86
2022/05/23 02:36:31;;;;;;;2.40;1.10;;;;;;;10.31;74.20;99838.17;1749051;82;20940;-86
2022/05/23 02:38:58;;;;;;;2.33;1.42;;;;;;;10.30;74.00;99835.20;1749928;82;21326;-85
2022/05/23 02:41:26;;;;;;;1.20;0.78;;;;;;;10.30;73.82;99833.89;1749497;82;20884;-86
2022/05/23 02:43:52;;;;;;;1.77;1.10;;;;;;;10.30;73.65;99834.37;1749673;82;21338;-84
2022/05/23 02:46:21;;;;;;;1.20;1.05;;;;;;;10.29;73.76;99832.23;1749856;81;21120;-86
2022/05/23 02:51:52;;;;;;;3.65;1.30;;;;;;;10.33;73.80;99840.22;1685951;78;20975;-87
2022/05/23 02:54:20;;;;;;;0.98;0.95;;;;;;;10.31;73.58;99847.83;1668675;84;21580;-86
2022/05/23 02:56:49;;;;;;;1.95;0.95;;;;;;;10.31;73.70;99853.90;1668529;84;20904;-85
2022/05/23 02:59:18;;;;;;;1.40;1.30;;;;;;;10.35;73.40;99853.22;1668822;86;21238;-85
2022/05/23 03:04:32;;;;;;;1.32;1.22;;;;;;;10.41;72.97;99858.03;1668515;86;21020;-86
2022/05/23 03:06:59;;;;;;;1.67;1.07;;;;;;;10.40;73.20;99862.89;1668641;86;20968;-86
2022/05/23 03:09:27;;;;;;;1.50;1.45;;;;;;;10.43;73.04;99872.34;1668709;86;20912;-87
2022/05/23 03:11:54;;;;;;;1.25;1.15;;;;;;;10.47;72.73;99877.70;1668860;86;21118;-86
2022/05/23 03:14:23;;;;;;;1.98;1.10;;;;;;;10.47;72.36;99872.47;1671533;84;21688;-84
2022/05/23 03:16:51;;;;;;;1.35;1.20;;;;;;;10.47;72.28;99878.57;1641692;86;20995;-84
2022/05/23 03:19:19;;;;;;;4.03;1.17;;;;;;;10.50;72.66;99878.34;1669067;86;20923;-88
2022/05/23 03:27:18;;;;;;;4.50;2.50;;;;;;;10.68;71.93;99872.72;1668921;84;21401;-86
2022/05/23 03:29:45;;;;;;;1.67;1.52;;;;;;;10.71;71.57;99874.62;1669149;86;20940;-87
2022/05/23 03:32:13;;;;;;;1.15;1.07;;;;;;;10.73;72.49;99875.36;1668609;86;20916;-85
2022/05/23 03:34:41;;;;;;;2.15;1.45;;;;;;;10.80;71.86;99875.75;1668390;86;21556;-86
2022/05/23 03:37:08;;;;;;;1.60;1.27;;;;;;;10.85;71.43;99885.45;1668802;86;21243;-84
2022/05/23 03:39:38;;;;;;;1.47;1.35;;;;;;;10.93;71.70;99884.88;1668499;84;20987;-86
2022/05/23 03:42:06;;;;;;;1.57;1.47;;;;;;;10.97;71.09;99887.64;1668687;85;20999;-86
2022/05/23 03:44:35;;;;;;;1.55;1.42;;;;;;;10.98;70.55;99891.92;1668857;86;21496;-86
2022/05/23 03:47:03;;;;;;;1.35;1.20;;;;;;;11.03;70.48;99899.45;1618494;86;20952;-85
2022/05/23 03:49:32;;;;;;;1.57;1.47;;;;;;;11.10;70.32;99900.70;1668508;86;21341;-86
2022/05/23 03:52:00;;;;;;;1.37;1.20;;;;;;;11.13;70.22;99902.61;1666412;86;20885;-85
2022/05/23 03:54:27;;;;;;;2.72;1.62;;;;;;;11.21;70.40;99903.37;1660062;86;20908;-86
2022/05/23 03:57:02;;;;;;;2.80;1.20;;;;;;;11.27;69.63;99896.36;1660132;86;20917;-86
2022/05/23 03:59:29;;;;;;;1.50;1.35;;;;;;;11.31;68.89;99891.21;1660254;86;21551;-85
2022/05/23 04:01:58;;;;;;;1.45;1.35;;;;;;;11.33;68.47;99891.11;1660422;86;21398;-86
2022/05/23 04:04:28;;;;;;;2.27;1.30;;;;;;;11.33;68.48;99895.88;1659605;86;20872;-86
2022/05/23 04:07:00;;;;;;;2.10;1.90;;;;;;;11.38;68.26;99901.64;1658567;86;20924;-86
2022/05/23 04:09:28;;;;;;;2.00;1.50;;;;;;;11.45;68.05;99902.47;1660139;86;20972;-85
2022/05/23 04:11:57;;;;;;;2.65;1.40;;;;;;;11.61;68.06;99900.38;1635623;86;20881;-86
2022/05/23 04:14:25;;;;;;;2.00;1.20;;;;;;;11.83;67.57;99907.45;1661194;86;21145;-85
2022/05/23 04:16:53;;;;;;;4.08;1.32;;;;;;;12.28;67.38;99904.03;1661160;86;20968;-85
2022/05/23 04:19:20;;;;;;;3.52;1.30;;;;;;;12.88;66.14;99910.61;1662905;86;20948;-84
2022/05/23 04:21:49;;;;;;;2.47;1.20;;;;;;;13.51;63.97;99903.31;1657137;86;20968;-84
2022/05/23 04:24:18;;;;;;;3.83;1.50;;;;;;;14.10;61.80;99905.30;1660101;86;20920;-83
2022/05/23 04:26:53;;;;;;;1.72;1.45;;;;;;;14.69;59.87;99910.29;1659850;86;22180;-85
2022/05/23 04:29:22;;;;;;;1.95;0.85;;;;;;;15.23;57.91;99914.70;1660302;86;20975;-85
2022/05/23 04:31:49;;;;;;;4.40;1.35;;;;;;;15.74;57.01;99915.74;1660286;86;20912;-85
2022/05/23 04:37:05;;;;;;;1.70;0.93;;;;;;;16.75;54.63;99914.52;1659967;86;20952;-86
2022/05/23 04:39:35;;;;;;;0.72;0.72;;;;;;;17.30;52.62;99908.30;1659724;86;21290;-87
2022/05/23 04:42:03;;;;;;;0.98;0.90;;;;;;;17.73;50.77;99898.66;1659911;86;21514;-86
2022/05/23 04:44:32;;;;;;;1.80;0.85;;;;;;;18.00;49.62;99896.34;1660127;86;20952;-86
2022/05/23 04:49:50;;;;;;;1.25;0.70;;;;;;;18.22;47.78;99894.96;1660245;86;20995;-86
2022/05/23 04:52:36;;;;;;;9.00;1.05;;;;;;;18.40;48.06;99898.84;1659643;85;21008;-85
2022/05/23 04:55:04;;;;;;;1.92;1.20;;;;;;;18.56;47.35;99901.22;1660223;86;21023;-85
2022/05/23 04:57:33;;;;;;;1.90;0.80;;;;;;;18.51;47.84;99901.70;1660324;86;20960;-86
2022/05/23 05:00:04;;;;;;;2.45;1.25;;;;;;;18.36;47.46;99907.30;1660166;86;21540;-85
2022/05/23 05:02:35;;;;;;;1.52;1.27;;;;;;;18.02;47.43;99906.31;1660017;86;20941;-85
2022/05/23 05:05:03;;;;;;;3.22;1.05;;;;;;;17.58;47.73;99911.64;1660303;86;21100;-85
2022/05/23 05:07:33;;;;;;;1.55;1.10;;;;;;;17.17;48.48;99910.00;1660687;86;21024;-87
2022/05/23 05:10:00;;;;;;;1.77;1.42;;;;;;;16.92;49.19;99916.89;1660174;86;20916;-85
2022/05/23 05:12:28;;;;;;;1.65;1.15;;;;;;;16.71;49.84;99913.65;1660314;86;20936;-83
2022/05/23 05:14:56;;;;;;;2.77;1.37;;;;;;;16.54;50.44;99921.88;1660251;86;20945;-84
2022/05/23 05:17:23;;;;;;;1.95;1.30;;;;;;;16.46;50.83;99920.48;1660294;86;21302;-84
2022/05/23 05:19:50;;;;;;;1.12;1.10;;;;;;;16.42;51.42;99925.23;1660337;86;20885;-83
2022/05/23 05:22:36;;;;;;;1.35;0.90;;;;;;;16.42;52.03;99930.52;1662650;86;20915;-83
2022/05/23 05:25:12;;;;;;;0.72;0.62;;;;;;;16.43;52.57;99925.59;1661361;86;21035;-83
2022/05/23 05:27:41;;;;;;;1.75;1.12;;;;;;;16.48;52.03;99927.30;1660200;86;20948;-85
2022/05/23 05:30:11;;;;;;;1.20;1.07;;;;;;;16.45;51.26;99932.89;1661003;86;21211;-84
2022/05/23 05:33:01;;;;;;;1.30;1.05;;;;;;;16.41;51.42;99930.19;1660453;86;20936;-85
2022/05/23 05:35:39;;;;;;;4.05;1.00;;;;;;;16.39;51.38;99934.80;1660302;85;20916;-85
2022/05/23 05:38:26;;;;;;;2.22;0.90;;;;;;;16.44;51.55;99933.03;1660185;86;21589;-86
2022/05/23 05:40:57;;;;;;;1.20;0.90;;;;;;;16.48;51.86;99935.73;1660201;86;20968;-84
2022/05/23 05:43:30;;;;;;;1.15;0.75;;;;;;;16.49;51.40;99939.53;1660934;86;21270;-85
2022/05/23 05:46:04;;;;;;;3.65;1.35;;;;;;;16.42;51.35;99941.11;1660718;86;20924;-85
2022/05/23 05:48:40;;;;;;;1.57;1.10;;;;;;;16.32;51.08;99947.78;1660004;86;20928;-85
2022/05/23 05:51:09;;;;;;;3.77;0.95;;;;;;;16.20;50.80;99943.63;1660310;86;20932;-85
2022/05/23 05:53:36;;;;;;;1.52;1.07;;;;;;;16.07;50.70;99941.30;1656393;86;21512;-84
2022/05/23 05:56:05;;;;;;;1.80;1.70;;;;;;;16.02;51.86;99936.95;1668699;84;21413;-85
2022/05/23 05:58:33;;;;;;;1.60;1.15;;;;;;;16.02;52.24;99937.44;1662165;85;20983;-86
2022/05/23 06:01:00;;;;;;;2.40;1.17;;;;;;;16.02;53.04;99936.12;1668675;84;20936;-86
2022/05/23 06:03:29;;;;;;;0.98;0.95;;;;;;;16.08;53.63;99931.58;1668523;86;20928;-87
2022/05/23 06:11:32;;;;;;;1.87;1.32;;;;;;;16.15;51.57;99933.49;1668525;86;21023;-85
2022/05/23 06:14:12;;;;;;;1.30;1.10;;;;;;;16.13;52.20;99933.30;1668099;86;20975;-85
2022/05/23 06:16:53;;;;;;;2.67;0.98;;;;;;;16.08;52.24;99936.38;1668497;84;21007;-89
2022/05/23 06:19:21;;;;;;;1.72;1.30;;;;;;;16.15;52.81;99933.98;1668712;86;21007;-86
2022/05/23 06:21:56;;;;;;;1.10;0.98;;;;;;;16.24;52.92;99939.73;1667007;86;21261;-86
2022/05/23 06:24:23;;;;;;;1.12;1.12;;;;;;;16.29;52.58;99947.23;1668648;84;21536;-86
2022/05/23 06:26:52;;;;;;;1.07;0.93;;;;;;;16.30;52.68;99935.19;1671624;85;21292;-85
2022/05/23 06:29:26;;;;;;;4.53;1.20;;;;;;;16.36;52.15;99935.07;1637559;85;20943;-83
2022/05/23 06:31:54;;;;;;;1.85;1.07;;;;;;;16.45;51.82;99940.84;1669610;85;21046;-86
2022/05/23 06:34:23;;;;;;;2.50;1.15;;;;;;;16.54;51.94;99933.33;1668486;84;21952;-86
2022/05/23 06:36:51;;;;;;;3.22;2.92;;;;;;;16.65;52.03;99928.80;1668500;86;20952;-86
2022/05/23 06:39:18;;;;;;;3.20;1.85;;;;;;;16.72;50.97;99932.55;1661053;85;20956;-85
2022/05/23 06:42:07;;;;;;;2.40;1.47;;;;;;;16.77;50.32;99926.30;1668514;84;21011;-86
2022/05/23 06:44:52;;;;;;;2.85;1.00;;;;;;;16.82;50.70;99929.86;1668572;84;21062;-85
2022/05/23 06:47:25;;;;;;;0.85;0.85;;;;;;;16.91;50.99;99926.30;1615823;86;21476;-87
2022/05/23 06:50:12;;;;;;;2.22;1.82;;;;;;;17.03;51.27;99926.91;1666535;85;21470;-85
2022/05/23 06:52:46;;;;;;;1.10;1.00;;;;;;;17.16;50.55;99922.92;1656832;86;20873;-84
2022/05/23 06:55:18;;;;;;;3.50;1.00;;;;;;;17.24;50.07;99922.64;1656822;86;20928;-85
2022/05/23 06:57:46;;;;;;;2.95;1.07;;;;;;;17.34;49.68;99915.42;1660951;86;20967;-86
2022/05/23 07:00:16;;;;;;;1.57;1.10;;;;;;;17.47;49.34;99920.34;1660140;86;21154;-88
2022/05/23 07:02:44;;;;;;;3.80;1.00;;;;;;;17.64;49.85;99916.83;1660303;86;20980;-85
2022/05/23 07:13:39;;;;;;;2.35;0.90;;;;;;;18.50;49.04;99919.97;1660342;86;21278;-86
2022/05/23 07:16:06;;;;;;;3.00;0.88;;;;;;;18.68;47.68;99919.86;1660054;86;20932;-86
2022/05/23 07:18:34;;;;;;;1.42;1.10;;;;;;;18.87;48.26;99918.76;1635806;86;20976;-85
2022/05/23 07:21:07;;;;;;;3.67;1.42;;;;;;;19.09;46.80;99925.27;1659531;86;20929;-84
2022/05/23 07:23:35;;;;;;;3.25;0.90;;;;;;;19.24;45.59;99924.14;1658553;86;21457;-85
2022/05/23 07:26:07;;;;;;;2.85;0.72;;;;;;;19.41;45.57;99927.64;1660306;86;21104;-86
2022/05/23 07:28:39;;;;;;;1.87;0.88;;;;;;;19.61;45.17;99934.78;1655963;86;20920;-85
2022/05/23 07:31:07;;;;;;;3.05;1.17;;;;;;;19.81;45.47;99932.59;1662823;85;20901;-87
2022/05/23 07:33:34;;;;;;;3.98;1.05;;;;;;;20.01;44.31;99933.05;1661524;86;20897;-84
2022/05/23 07:36:02;;;;;;;2.10;1.32;;;;;;;20.12;44.18;99936.72;1660232;86;21011;-85
2022/05/23 07:38:29;;;;;;;5.05;1.57;;;;;;;20.30;43.57;99937.82;1660263;86;21336;-87
2022/05/23 07:40:58;;;;;;;2.83;1.10;;;;;;;20.45;41.91;99937.43;1660308;86;21664;-86
2022/05/23 07:43:27;;;;;;;2.45;0.90;;;;;;;20.53;42.06;99938.39;1660044;86;20889;-86
2022/05/23 07:45:55;;;;;;;2.20;1.37;;;;;;;20.77;42.64;99944.96;1660192;86;20996;-84
2022/05/23 07:48:22;;;;;;;0.95;0.82;;;;;;;21.18;41.84;99946.02;1660406;86;21144;-83
2022/05/23 07:50:50;;;;;;;1.57;0.82;;;;;;;21.55;40.60;99951.62;1660983;86;21259;-85
2022/05/23 08:01:43;;;;;;;2.20;1.35;;;;;;;22.66;37.65;99949.44;1660136;86;21063;-84
2022/05/23 08:04:09;;;;;;;3.02;1.30;;;;;;;22.96;37.89;99945.34;1657737;86;21846;-86
2022/05/23 08:06:41;;;;;;;3.47;1.00;;;;;;;23.36;37.72;99949.27;1659799;86;21378;-85
2022/05/23 08:09:09;;;;;;;1.85;1.02;;;;;;;23.68;36.03;99948.42;1660234;86;21517;-85
2022/05/23 08:11:42;;;;;;;3.27;1.20;;;;;;;23.90;35.48;99947.05;1650171;86;20932;-85
2022/05/23 08:14:14;;;;;;;1.52;1.40;;;;;;;24.06;36.43;99948.62;1659946;86;21573;-86
2022/05/23 08:16:43;;;;;;;2.33;1.40;;;;;;;24.20;34.04;99939.62;1659367;86;21189;-86
2022/05/23 08:19:10;;;;;;;4.65;1.00;;;;;;;24.10;34.56;99938.65;1660018;86;21434;-84
2022/05/23 08:21:42;;;;;;;2.17;1.42;;;;;;;24.26;35.17;99936.67;1660015;86;20885;-84
2022/05/23 08:24:10;;;;;;;2.00;1.17;;;;;;;24.65;35.18;99945.94;1660343;86;28175;-84
2022/05/23 08:26:37;;;;;;;2.05;1.15;;;;;;;24.93;35.56;99948.52;1660136;86;20952;-85
2022/05/23 08:29:05;;;;;;;2.67;1.22;;;;;;;25.23;34.30;99947.66;1660134;86;21456;-83
2022/05/23 08:31:33;;;;;;;2.15;1.00;;;;;;;25.48;33.68;99947.91;1660026;86;21497;-85
2022/05/23 08:34:02;;;;;;;4.10;1.07;;;;;;;25.73;32.41;99945.94;1660334;86;20995;-84
2022/05/23 08:36:31;;;;;;;2.08;1.20;;;;;;;25.97;32.71;99943.15;1662514;86;20952;-85
2022/05/23 08:39:00;;;;;;;1.85;1.12;;;;;;;26.29;31.91;99941.92;1661179;86;21326;-82
2022/05/23 08:41:41;;;;;;;3.85;2.98;;;;;;;26.64;31.56;99941.92;1660424;86;20945;-84
2022/05/23 08:44:24;;;;;;;5.37;3.25;;;;;;;26.76;30.65;99939.89;1659791;86;20978;-84
2022/05/23 08:47:06;;;;;;;13.62;11.97;;;;;;;26.81;31.22;99938.72;1661272;86;21000;-85
2022/05/23 08:49:52;;;;;;;8.05;7.25;;;;;;;27.02;30.54;99942.44;1660717;86;21000;-83
2022/05/23 08:52:58;;;;;;;1.35;1.25;;;;;;;27.11;30.14;99938.15;1653248;86;20952;-85
2022/05/23 08:55:45;;;;;;;6.83;1.92;;;;;;;27.07;29.84;99941.78;1659971;86;21778;-85
2022/05/23 08:58:48;;;;;;;2.98;1.40;;;;;;;26.68;30.09;99939.63;1623379;86;20956;-91
2022/05/23 09:01:19;;;;;;;2.15;0.85;;;;;;;26.35;30.57;99943.25;1603147;89;20987;-84
2022/05/23 09:03:55;;;;;;;2.42;1.10;;;;;;;26.34;31.59;99934.86;1606159;88;20903;-85
2022/05/23 09:06:28;;;;;;;2.10;1.00;;;;;;;26.58;31.88;99931.19;1627885;88;21046;-85
2022/05/23 09:09:01;;;;;;;2.03;1.00;;;;;;;26.90;31.12;99929.35;1628378;88;21565;-86
2022/05/23 09:11:38;;;;;;;7.33;1.17;;;;;;;27.24;29.76;99928.14;1626732;88;20952;-85
2022/05/23 09:14:11;;;;;;;3.42;0.93;;;;;;;27.52;28.59;99922.83;1627679;88;21011;-85
2022/05/23 09:16:47;;;;;;;3.00;1.30;;;;;;;27.74;27.78;99917.86;1628252;88;20975;-87
2022/05/23 09:20:45;;;;;;;2.45;0.90;;;;;;;27.49;28.12;99916.02;1854664;77;22538;-86
2022/05/23 09:23:27;;;;;;;2.52;1.65;;;;;;;27.37;28.56;99919.64;1822311;78;20833;-86
2022/05/23 09:25:59;;;;;;;1.80;0.93;;;;;;;27.10;28.88;99923.84;1822409;78;21340;-86
2022/05/23 09:28:40;;;;;;;0.70;0.70;;;;;;;26.81;27.81;99918.55;1816967;78;20899;-85
2022/05/23 09:31:21;;;;;;;3.52;1.00;;;;;;;26.51;28.71;99917.73;1822287;78;20867;-86
2022/05/23 09:33:50;;;;;;;2.45;1.07;;;;;;;26.23;28.89;99922.08;1822335;78;20967;-88
2022/05/23 09:36:23;;;;;;;2.10;1.10;;;;;;;25.86;29.03;99931.14;1821620;78;20966;-88
2022/05/23 09:38:59;;;;;;;2.52;1.37;;;;;;;25.44;29.36;99927.34;1822770;78;21139;-86
2022/05/23 09:50:09;;;;;;;;;;;;;;;24.01;30.44;99925.07;1825186;78;20951;-87
2022/05/23 09:52:49;;;;;;;2.37;1.20;;;;;;;23.58;30.99;99925.98;1822236;78;21260;-87
2022/05/23 09:55:30;;;;;;;7.72;3.22;;;;;;;23.15;31.46;99925.22;1822172;78;21369;-86
2022/05/23 09:58:00;;;;;;;2.90;1.92;;;;;;;22.83;32.12;99927.82;1822546;78;20871;-86
2022/05/23 10:00:35;;;;;;;6.08;1.32;;;;;;;22.62;32.44;99931.30;1822478;78;21402;-88
2022/05/23 10:03:10;;;;;;;3.33;1.45;;;;;;;22.48;33.08;99934.32;1822281;78;20963;-88
2022/05/23 10:05:44;;;;;;;2.47;1.45;;;;;;;22.27;32.96;99936.40;1822197;78;21164;-87
2022/05/23 10:08:33;;;;;;;1.80;0.80;;;;;;;22.01;32.38;99941.67;1822199;78;20911;-87
2022/05/23 10:11:04;;;;;;;4.55;1.05;;;;;;;21.80;33.20;99939.70;1817200;78;21459;-87
2022/05/23 10:13:38;;;;;;;1.62;1.25;;;;;;;21.66;33.16;99950.68;1822392;78;28266;-87
2022/05/23 10:16:14;;;;;;;3.33;1.32;;;;;;;21.52;33.78;99944.78;1817295;78;20887;-88
2022/05/23 10:19:03;;;;;;;3.65;1.25;;;;;;;21.42;34.23;99942.89;1822691;78;21232;-88
2022/05/23 10:21:39;;;;;;;2.62;1.57;;;;;;;21.37;35.48;99947.91;1825702;78;20888;-88
2022/05/23 10:24:18;;;;;;;1.82;1.72;;;;;;;21.29;37.48;99949.61;1825676;78;20828;-86
2022/05/23 10:27:07;;;;;;;2.98;1.42;;;;;;;21.17;38.61;99951.05;1825647;78;21373;-86
2022/05/23 10:29:53;;;;;;;1.35;1.25;;;;;;;21.18;40.07;99946.02;1825755;78;20971;-86
2022/05/23 10:32:50;;;;;;;1.52;1.40;;;;;;;21.22;39.98;99944.66;1825163;78;21915;-87
2022/05/23 10:35:40;;;;;;;1.85;1.52;;;;;;;21.42;40.32;99942.38;1825121;78;21297;-87
2022/05/23 10:44:24;;;;;;;2.17;1.30;;;;;;;22.35;38.61;99932.30;1825867;78;20947;-87
2022/05/23 10:46:56;;;;;;;3.42;1.20;;;;;;;23.00;37.44;99926.60;1828364;78;20927;-85
2022/05/23 10:49:35;;;;;;;4.33;0.70;;;;;;;23.62;35.97;99926.44;1826511;78;20923;-86
2022/05/23 10:52:22;;;;;;;2.12;1.10;;;;;;;24.17;35.80;99926.63;1824302;78;20959;-87
2022/05/23 10:55:16;;;;;;;2.27;1.07;;;;;;;24.47;34.84;99928.51;1824880;78;20895;-87
2022/05/23 10:58:09;;;;;;;3.02;1.62;;;;;;;24.62;33.18;99927.06;1825248;78;20911;-86
2022/05/23 11:01:00;;;;;;;5.65;1.10;;;;;;;24.51;32.89;99927.64;1812995;78;21258;-87
2022/05/23 11:03:36;;;;;;;1.45;0.80;;;;;;;24.27;33.03;99934.30;1825038;78;20872;-88
2022/05/23 11:06:21;;;;;;;4.47;1.05;;;;;;;23.97;31.49;99934.55;1825180;78;20994;-87
2022/05/23 11:09:22;;;;;;;1.00;0.93;;;;;;;23.58;31.40;99935.35;1821799;78;20884;-86
2022/05/23 11:12:00;;;;;;;1.22;1.05;;;;;;;23.26;31.74;99946.11;1825185;78;20989;-86
2022/05/23 11:14:48;;;;;;;4.33;2.40;;;;;;;22.89;31.79;99939.92;1825364;78;21223;-87
2022/05/23 11:17:34;;;;;;;4.62;2.10;;;;;;;22.58;33.21;99937.52;1825106;78;20860;-87
2022/05/23 11:20:29;;;;;;;4.28;2.15;;;;;;;22.23;34.17;99943.97;1823059;78;21472;-86
2022/05/23 11:23:26;;;;;;;4.67;1.52;;;;;;;21.93;34.95;99947.09;1822009;78;20947;-86
2022/05/23 11:26:04;;;;;;;3.00;1.72;;;;;;;21.71;35.20;99948.80;1821865;78;21487;-87
2022/05/23 11:34:32;;;;;;;3.62;1.22;;;;;;;21.09;35.80;99951.91;1821768;78;21002;-87
2022/05/23 11:39:51;;;;;;;6.40;1.40;;;;;;;20.71;37.00;99953.64;1821799;78;20935;-85
2022/05/23 11:42:50;;;;;;;3.08;1.12;;;;;;;20.47;37.08;99950.55;1815146;78;21074;-86
2022/05/23 11:48:46;;;;;;;3.90;1.20;;;;;;;20.09;37.91;99957.00;1823117;78;21337;-84
2022/05/23 11:51:32;;;;;;;2.52;1.07;;;;;;;19.88;37.94;99958.89;1823604;78;20947;-85
2022/05/23 11:54:08;;;;;;;1.77;1.10;;;;;;;19.75;38.14;99958.57;1822161;78;20974;-86
2022/05/23 11:57:06;;;;;;;2.25;1.30;;;;;;;19.62;38.71;99956.37;1821700;78;21148;-85
2022/05/23 11:59:38;;;;;;;4.15;1.65;;;;;;;19.51;39.52;99959.38;1750267;80;21006;-85
2022/05/23 12:02:12;;;;;;;4.58;1.20;;;;;;;19.37;40.01;99962.20;1750925;82;20962;-84
2022/05/23 12:04:54;;;;;;;3.62;1.25;;;;;;;19.25;40.96;99963.00;1751697;82;21407;-86
2022/05/23 12:07:44;;;;;;;3.00;1.42;;;;;;;19.14;41.10;99961.98;1750814;82;20950;-86
2022/05/23 12:10:29;;;;;;;3.58;1.20;;;;;;;19.02;41.05;99962.81;1750580;80;21879;-85
2022/05/23 12:13:09;;;;;;;3.92;1.40;;;;;;;18.94;41.41;99968.09;1750750;82;21010;-85
2022/05/23 12:15:47;;;;;;;1.87;1.50;;;;;;;18.89;42.06;99962.45;1710264;83;21545;-87
2022/05/23 12:18:28;;;;;;;1.15;1.02;;;;;;;18.87;42.09;99973.73;1714675;82;20948;-86
2022/05/23 12:21:02;;;;;;;1.60;1.15;;;;;;;18.87;42.13;99960.45;1694294;83;21139;-85
2022/05/23 12:23:43;;;;;;;3.95;1.60;;;;;;;18.88;42.38;99958.97;1689522;83;21476;-86
2022/05/23 12:26:22;;;;;;;3.92;1.60;;;;;;;18.90;42.41;99960.11;1712808;82;21476;-87
2022/05/23 12:29:00;;;;;;;2.55;1.00;;;;;;;18.91;42.38;99959.13;1712816;83;20963;-86
2022/05/23 12:31:32;;;;;;;1.22;1.12;;;;;;;18.92;42.66;99963.44;1712986;83;20916;-88
2022/05/23 12:34:10;;;;;;;4.42;1.40;;;;;;;18.91;42.37;99959.95;1697196;83;21085;-87
2022/05/23 12:36:48;;;;;;;4.28;1.30;;;;;;;18.89;42.52;99954.48;1759942;81;21173;-87
2022/05/23 12:39:42;;;;;;;4.70;1.47;;;;;;;18.87;42.88;99959.12;1729515;81;20903;-88
2022/05/23 12:42:46;;;;;;;4.55;1.22;;;;;;;18.84;42.87;99957.63;1759995;81;20979;-87
2022/05/23 12:45:31;;;;;;;2.75;1.20;;;;;;;18.82;42.57;99955.63;1760632;81;20899;-85
2022/05/23 12:48:46;;;;;;;5.20;1.98;;;;;;;18.77;43.23;99962.75;1698575;82;20844;-87
2022/05/23 12:51:37;;;;;;;4.08;1.67;;;;;;;18.73;43.19;99963.20;1760864;80;21119;-85
2022/05/23 12:54:39;;;;;;;6.75;1.72;;;;;;;18.68;43.42;99966.34;1762936;76;21039;-85
2022/05/23 12:57:36;;;;;;;6.25;1.57;;;;;;;18.66;44.00;99965.67;1730454;81;20896;-85
2022/05/23 13:00:14;;;;;;;2.98;1.20;;;;;;;18.62;44.31;99966.47;1760140;81;20974;-87
2022/05/23 13:03:01;;;;;;;2.50;1.55;;;;;;;18.59;44.48;99972.63;1728060;81;20924;-87
2022/05/23 13:05:41;;;;;;;1.17;1.00;;;;;;;18.58;43.90;99970.44;1759790;81;21393;-89
2022/05/23 13:08:36;;;;;;;4.00;1.52;;;;;;;18.58;44.22;99970.44;1760473;80;20954;-89
2022/05/23 13:11:11;;;;;;;2.42;1.20;;;;;;;18.60;44.22;99972.44;1739591;81;20959;-88
2022/05/23 13:13:42;;;;;;;2.30;1.07;;;;;;;18.62;43.82;99974.44;1759665;81;20983;-87
2022/05/23 13:16:28;;;;;;;2.50;1.60;;;;;;;18.59;43.66;99968.64;1760165;81;21004;-86
2022/05/23 13:24:50;;;;;;;5.72;1.55;;;;;;;18.53;43.99;99980.72;1821760;78;20954;-89
2022/05/23 13:27:25;;;;;;;1.40;1.30;;;;;;;18.52;44.76;99989.69;1821068;78;20856;-87
2022/05/23 13:30:28;;;;;;;3.95;1.15;;;;;;;18.50;45.02;99982.84;1821739;78;21455;-87